createdAt,value
2023-03-30T00:00:23.495Z,7.38
2023-03-30T00:02:53.927Z,8.30
2023-03-30T00:05:24.017Z,7.28
2023-03-30T00:07:51.192Z,6.57
2023-03-30T00:10:19.326Z,7.45
2023-03-30T00:12:50.597Z,7.88
2023-03-30T00:15:19.432Z,8.20
2023-03-30T00:17:46.558Z,8.07
2023-03-30T00:20:14.813Z,8.07
2023-03-30T00:22:43.306Z,7.35
2023-03-30T00:25:15.186Z,6.45
2023-03-30T00:27:42.517Z,7.38
2023-03-30T00:30:13.470Z,7.57
2023-03-30T00:32:41.040Z,7.70
2023-03-30T00:35:08.357Z,7.25
2023-03-30T00:37:37.483Z,7.03
2023-03-30T00:40:10.549Z,7.93
2023-03-30T00:42:38.014Z,8.15
2023-03-30T00:45:27.785Z,7.82
2023-03-30T00:48:09.094Z,7.47
2023-03-30T00:50:43.249Z,7.63
2023-03-30T00:53:22.984Z,7.20
2023-03-30T00:55:52.129Z,7.35
2023-03-30T00:58:21.533Z,8.57
2023-03-30T01:00:48.761Z,7.50
2023-03-30T01:03:30.550Z,7.15
2023-03-30T01:06:01.484Z,7.07
2023-03-30T01:08:32.665Z,7.78
2023-03-30T01:11:01.890Z,7.10
2023-03-30T01:13:30.971Z,7.50
2023-03-30T01:16:27.394Z,6.82
2023-03-30T01:19:03.295Z,7.30
2023-03-30T01:21:42.053Z,7.75
2023-03-30T01:24:11.831Z,6.75
2023-03-30T01:26:59.856Z,7.55
2023-03-30T01:29:41.953Z,7.75
2023-03-30T01:32:39.850Z,6.97
2023-03-30T01:35:41.120Z,7.43
2023-03-30T01:38:17.092Z,7.63
2023-03-30T01:41:20.141Z,7.78
2023-03-30T01:44:20.305Z,6.72
2023-03-30T01:47:12.650Z,7.50
2023-03-30T01:50:01.832Z,7.85
2023-03-30T01:52:42.629Z,7.15
2023-03-30T01:55:19.125Z,7.75
2023-03-30T01:58:14.537Z,7.15
2023-03-30T02:00:44.039Z,7.40
2023-03-30T02:03:19.370Z,7.28
2023-03-30T02:05:49.321Z,7.78
2023-03-30T02:08:20.883Z,7.40
2023-03-30T02:10:48.689Z,7.30
2023-03-30T02:13:17.734Z,6.90
2023-03-30T02:15:59.884Z,8.20
2023-03-30T02:18:27.204Z,6.07
2023-03-30T02:20:56.387Z,8.07
2023-03-30T02:23:24.980Z,7.55
2023-03-30T02:25:51.960Z,7.43
2023-03-30T02:28:18.936Z,7.72
2023-03-30T02:30:47.477Z,7.63
2023-03-30T02:33:49.419Z,7.72
2023-03-30T02:36:19.175Z,8.10
2023-03-30T02:38:52.017Z,7.32
2023-03-30T02:42:03.082Z,6.82
2023-03-30T02:44:54.614Z,6.82
2023-03-30T02:47:41.374Z,6.78
2023-03-30T02:50:31.466Z,8.30
2023-03-30T02:53:36.057Z,6.97
2023-03-30T02:56:27.659Z,7.20
2023-03-30T02:59:02.195Z,8.30
2023-03-30T03:04:03.349Z,6.90
2023-03-30T03:06:32.392Z,7.47
2023-03-30T03:08:59.525Z,7.55
2023-03-30T03:11:27.233Z,7.38
2023-03-30T03:13:55.773Z,7.88
2023-03-30T03:16:22.859Z,7.45
2023-03-30T03:18:50.036Z,7.88
2023-03-30T03:21:17.159Z,7.63
2023-03-30T03:23:44.248Z,9.20
2023-03-30T03:26:11.777Z,14.20
2023-03-30T03:28:38.727Z,8.07
2023-03-30T03:31:06.892Z,8.52
2023-03-30T03:33:34.066Z,8.25
2023-03-30T03:36:01.155Z,8.15
2023-03-30T03:38:28.865Z,7.90
2023-03-30T03:40:58.224Z,7.25
2023-03-30T03:43:26.196Z,8.20
2023-03-30T03:45:53.687Z,6.82
2023-03-30T03:48:22.626Z,7.82
2023-03-30T03:50:52.425Z,7.38
2023-03-30T03:53:19.970Z,6.97
2023-03-30T03:55:47.216Z,7.63
2023-03-30T03:58:15.162Z,7.32
2023-03-30T04:00:42.479Z,7.22
2023-03-30T04:03:09.997Z,6.95
2023-03-30T04:05:37.062Z,7.97
2023-03-30T04:08:04.607Z,7.60
2023-03-30T04:10:31.960Z,7.63
2023-03-30T04:12:59.131Z,7.88
2023-03-30T04:15:26.084Z,7.82
2023-03-30T04:17:58.257Z,8.18
2023-03-30T04:20:27.165Z,7.38
2023-03-30T04:22:54.533Z,7.15
2023-03-30T04:25:25.915Z,7.82
2023-03-30T04:27:53.553Z,6.85
2023-03-30T04:30:22.582Z,6.93
2023-03-30T04:33:03.415Z,7.80
2023-03-30T04:35:34.642Z,8.68
2023-03-30T04:38:02.614Z,7.32
2023-03-30T04:40:30.183Z,8.63
2023-03-30T04:43:02.290Z,6.80
2023-03-30T04:45:30.821Z,8.77
2023-03-30T04:47:58.002Z,6.95
2023-03-30T04:50:25.218Z,7.85
2023-03-30T04:52:52.292Z,8.35
2023-03-30T04:55:19.174Z,7.43
2023-03-30T04:57:46.613Z,7.65
2023-03-30T05:00:14.094Z,8.13
2023-03-30T05:02:41.231Z,8.05
2023-03-30T05:05:08.635Z,7.88
2023-03-30T05:07:36.147Z,7.50
2023-03-30T05:10:03.189Z,7.68
2023-03-30T05:12:30.252Z,8.73
2023-03-30T05:14:57.213Z,8.70
2023-03-30T05:17:24.239Z,8.25
2023-03-30T05:19:51.354Z,8.82
2023-03-30T05:22:18.309Z,8.38
2023-03-30T05:24:45.354Z,8.23
2023-03-30T05:27:13.615Z,8.07
2023-03-30T05:29:40.628Z,7.50
2023-03-30T05:32:07.768Z,8.60
2023-03-30T05:34:34.689Z,7.72
2023-03-30T05:37:01.877Z,8.68
2023-03-30T05:39:28.803Z,8.23
2023-03-30T05:41:55.808Z,7.75
2023-03-30T05:44:22.884Z,7.47
2023-03-30T05:46:49.980Z,9.00
2023-03-30T05:49:16.922Z,8.30
2023-03-30T05:51:43.909Z,8.70
2023-03-30T05:54:14.473Z,8.15
2023-03-30T05:56:42.582Z,7.93
2023-03-30T05:59:10.433Z,7.93
2023-03-30T06:01:37.988Z,8.05
2023-03-30T06:04:05.439Z,8.50
2023-03-30T06:06:32.613Z,8.00
2023-03-30T06:08:59.917Z,8.43
2023-03-30T06:11:28.444Z,7.32
2023-03-30T06:13:55.385Z,7.60
2023-03-30T06:16:22.483Z,7.43
2023-03-30T06:18:49.612Z,7.80
2023-03-30T06:21:16.745Z,7.55
2023-03-30T06:23:43.720Z,7.50
2023-03-30T06:26:11.654Z,7.45
2023-03-30T06:28:38.586Z,10.00
2023-03-30T06:31:12.474Z,8.55
2023-03-30T06:33:41.698Z,8.32
2023-03-30T06:36:14.451Z,8.43
2023-03-30T06:38:43.711Z,8.93
2023-03-30T06:41:12.832Z,8.15
2023-03-30T06:43:40.404Z,8.43
2023-03-30T06:46:08.413Z,8.98
2023-03-30T06:48:35.871Z,8.68
2023-03-30T06:51:04.002Z,8.52
2023-03-30T06:53:31.539Z,9.05
2023-03-30T06:55:59.289Z,8.55
2023-03-30T06:58:27.698Z,9.60
2023-03-30T07:00:55.117Z,9.00
2023-03-30T07:03:22.348Z,8.63
2023-03-30T07:05:52.735Z,7.85
2023-03-30T07:08:20.493Z,9.20
2023-03-30T07:10:48.159Z,8.35
2023-03-30T07:13:17.110Z,9.27
2023-03-30T07:15:45.720Z,9.68
2023-03-30T07:18:13.411Z,9.43
2023-03-30T07:20:40.550Z,8.52
2023-03-30T07:23:07.928Z,10.20
2023-03-30T07:25:35.030Z,8.75
2023-03-30T07:28:02.478Z,8.98
2023-03-30T07:30:29.559Z,9.27
2023-03-30T07:36:37.442Z,9.10
2023-03-30T07:39:04.704Z,9.68
2023-03-30T07:41:31.797Z,9.68
2023-03-30T07:43:58.972Z,9.95
2023-03-30T07:46:26.212Z,9.20
2023-03-30T07:48:53.176Z,10.23
2023-03-30T07:51:20.341Z,9.68
2023-03-30T07:53:48.851Z,9.85
2023-03-30T07:56:16.178Z,9.93
2023-03-30T07:58:43.574Z,10.55
2023-03-30T08:01:11.162Z,10.27
2023-03-30T08:03:39.479Z,10.93
2023-03-30T08:06:06.757Z,10.38
2023-03-30T08:08:34.522Z,12.60
2023-03-30T08:11:01.681Z,9.85
2023-03-30T08:13:28.787Z,10.68
2023-03-30T08:15:55.870Z,11.85
2023-03-30T08:18:22.909Z,11.65
2023-03-30T08:20:52.661Z,11.55
2023-03-30T08:23:20.656Z,12.02
2023-03-30T08:25:52.354Z,11.73
2023-03-30T08:28:21.382Z,12.07
2023-03-30T08:30:48.821Z,12.07
2023-03-30T08:33:16.286Z,11.65
2023-03-30T08:35:49.569Z,11.57
2023-03-30T08:38:19.675Z,10.60
2023-03-30T08:40:50.429Z,11.32
2023-03-30T08:43:32.533Z,12.07
2023-03-30T08:46:01.689Z,11.98
2023-03-30T08:48:34.145Z,11.98
2023-03-30T08:51:19.255Z,11.57
2023-03-30T08:53:47.422Z,12.55
2023-03-30T08:56:21.847Z,12.00
2023-03-30T09:01:57.832Z,10.98
2023-03-30T09:04:30.540Z,12.55
2023-03-30T09:07:16.039Z,13.43
2023-03-30T09:09:48.579Z,12.25
2023-03-30T09:12:42.982Z,27.90
2023-03-30T09:15:31.849Z,13.38
2023-03-30T09:18:34.534Z,13.00
2023-03-30T09:21:04.440Z,12.82
2023-03-30T09:23:33.314Z,13.75
2023-03-30T09:26:11.584Z,12.52
2023-03-30T09:28:59.596Z,13.40
2023-03-30T09:31:41.575Z,13.68
2023-03-30T09:34:14.800Z,13.23
2023-03-30T09:36:45.005Z,13.65
2023-03-30T09:39:20.396Z,13.43
2023-03-30T09:42:06.138Z,13.43
2023-03-30T09:44:37.458Z,13.85
2023-03-30T09:47:19.459Z,14.48
2023-03-30T09:49:47.275Z,12.88
2023-03-30T09:52:22.125Z,15.40
2023-03-30T09:54:49.262Z,12.65
2023-03-30T09:57:27.176Z,12.15
2023-03-30T09:59:56.000Z,12.18
2023-03-30T10:02:25.486Z,12.40
2023-03-30T10:05:00.500Z,12.35
2023-03-30T10:07:36.714Z,13.68
2023-03-30T10:10:21.792Z,13.50
2023-03-30T10:12:51.034Z,14.00
2023-03-30T10:15:20.927Z,13.68
2023-03-30T10:17:48.977Z,12.98
2023-03-30T10:24:14.784Z,13.52
2023-03-30T10:26:46.703Z,13.40
2023-03-30T10:29:18.483Z,13.55
2023-03-30T10:31:48.498Z,14.70
2023-03-30T10:34:23.597Z,14.77
2023-03-30T10:36:54.641Z,12.82
2023-03-30T10:39:30.366Z,13.27
2023-03-30T10:42:00.179Z,12.50
2023-03-30T10:44:35.908Z,12.27
2023-03-30T10:47:30.347Z,13.18
2023-03-30T10:50:03.432Z,12.65
2023-03-30T10:52:48.815Z,13.27
2023-03-30T10:55:45.006Z,11.95
2023-03-30T10:58:53.068Z,11.65
2023-03-30T11:01:42.836Z,10.60
2023-03-30T11:04:48.220Z,10.73
2023-03-30T11:07:44.183Z,19.30
2023-03-30T11:10:29.543Z,13.32
2023-03-30T11:13:05.059Z,10.50
2023-03-30T11:15:52.279Z,11.73
2023-03-30T11:18:19.261Z,11.00
2023-03-30T11:21:36.491Z,10.85
2023-03-30T11:24:23.129Z,11.68
2023-03-30T11:26:57.831Z,10.30
2023-03-30T11:29:37.845Z,11.70
2023-03-30T11:32:10.714Z,11.30
2023-03-30T11:34:51.675Z,12.20
2023-03-30T11:37:33.980Z,11.40
2023-03-30T11:40:17.410Z,11.60
2023-03-30T11:42:45.425Z,11.95
2023-03-30T11:45:18.721Z,12.40
2023-03-30T11:47:58.092Z,10.97
2023-03-30T11:50:33.986Z,11.32
2023-03-30T11:53:16.513Z,11.07
2023-03-30T11:55:51.348Z,10.80
2023-03-30T11:58:27.470Z,10.32
2023-03-30T12:01:25.464Z,11.23
2023-03-30T12:04:11.677Z,10.70
2023-03-30T12:07:00.752Z,11.10
2023-03-30T12:09:40.861Z,10.65
2023-03-30T12:12:18.489Z,11.88
2023-03-30T12:14:58.837Z,10.23
2023-03-30T12:17:42.708Z,11.75
2023-03-30T12:20:21.694Z,11.40
2023-03-30T12:23:17.167Z,11.50
2023-03-30T12:26:10.555Z,12.40
2023-03-30T12:29:36.058Z,12.88
2023-03-30T12:32:03.743Z,12.82
2023-03-30T12:37:10.303Z,12.50
2023-03-30T12:40:13.079Z,13.52
2023-03-30T12:42:46.953Z,13.20
2023-03-30T12:45:32.258Z,13.60
2023-03-30T12:48:05.027Z,13.32
2023-03-30T12:50:56.664Z,12.70
2023-03-30T12:54:00.900Z,14.10
2023-03-30T12:56:49.222Z,13.68
2023-03-30T12:59:27.144Z,14.63
2023-03-30T13:02:29.092Z,14.77
2023-03-30T13:04:56.825Z,13.90
2023-03-30T13:07:27.220Z,14.38
2023-03-30T13:09:59.410Z,14.82
2023-03-30T13:12:42.523Z,14.68
2023-03-30T13:15:48.917Z,14.13
2023-03-30T13:18:18.567Z,15.80
2023-03-30T13:20:48.731Z,18.15
2023-03-30T13:23:15.841Z,19.42
2023-03-30T13:26:06.349Z,18.27
2023-03-30T13:28:45.976Z,18.67
2023-03-30T13:31:34.182Z,18.25
2023-03-30T13:34:12.046Z,18.02
2023-03-30T13:37:09.996Z,19.88
2023-03-30T13:39:55.610Z,18.08
2023-03-30T13:42:31.614Z,18.52
2023-03-30T13:45:04.694Z,18.17
2023-03-30T13:47:57.549Z,18.10
2023-03-30T13:50:28.704Z,17.58
2023-03-30T13:53:00.492Z,20.92
2023-03-30T13:55:34.358Z,19.48
2023-03-30T13:58:24.104Z,20.35
2023-03-30T14:01:12.504Z,20.00
2023-03-30T14:03:46.738Z,20.52
2023-03-30T14:06:14.416Z,21.05
2023-03-30T14:08:48.057Z,21.00
2023-03-30T14:11:33.770Z,21.58
2023-03-30T14:14:03.422Z,22.38
2023-03-30T14:16:38.921Z,24.40
2023-03-30T14:19:32.294Z,24.60
2023-03-30T14:22:14.239Z,25.40
2023-03-30T14:25:04.294Z,24.23
2023-03-30T14:27:38.600Z,24.13
2023-03-30T14:32:46.698Z,25.52
2023-03-30T14:35:18.599Z,25.05
2023-03-30T14:37:51.799Z,25.52
2023-03-30T14:40:20.865Z,25.23
2023-03-30T14:42:48.071Z,24.92
2023-03-30T14:45:19.616Z,24.15
2023-03-30T14:47:48.854Z,24.45
2023-03-30T14:50:17.556Z,25.23
2023-03-30T14:52:47.027Z,24.55
2023-03-30T14:55:25.080Z,23.92
2023-03-30T14:57:53.088Z,22.05
2023-03-30T15:00:22.997Z,24.17
2023-03-30T15:02:59.113Z,23.08
2023-03-30T15:05:34.073Z,21.88
2023-03-30T15:08:03.554Z,21.33
2023-03-30T15:10:43.296Z,20.00
2023-03-30T15:13:17.111Z,21.20
2023-03-30T15:15:44.391Z,21.30
2023-03-30T15:18:21.437Z,20.17
2023-03-30T15:20:48.656Z,21.00
2023-03-30T15:23:16.522Z,23.50
2023-03-30T15:25:44.670Z,21.52
2023-03-30T15:28:20.951Z,21.92
2023-03-30T15:30:54.386Z,21.13
2023-03-30T15:33:39.858Z,21.80
2023-03-30T15:36:13.241Z,21.35
2023-03-30T15:38:58.896Z,21.17
2023-03-30T15:41:44.756Z,21.52
2023-03-30T15:44:17.429Z,21.70
2023-03-30T15:46:46.541Z,21.42
2023-03-30T15:49:16.752Z,22.48
2023-03-30T15:51:47.572Z,21.60
2023-03-30T15:54:22.518Z,23.90
2023-03-30T15:57:05.208Z,24.15
2023-03-30T16:00:02.174Z,24.30
2023-03-30T16:02:32.421Z,23.23
2023-03-30T16:05:04.282Z,22.80
2023-03-30T16:07:32.255Z,24.35
2023-03-30T16:09:59.322Z,24.20
2023-03-30T16:12:31.159Z,25.85
2023-03-30T16:14:58.823Z,26.52
2023-03-30T16:17:25.980Z,27.95
2023-03-30T16:19:53.040Z,25.60
2023-03-30T16:22:20.076Z,27.80
2023-03-30T16:24:48.383Z,27.33
2023-03-30T16:27:15.945Z,26.92
2023-03-30T16:29:42.993Z,27.35
2023-03-30T16:32:10.053Z,26.48
2023-03-30T16:34:37.048Z,27.88
2023-03-30T16:37:04.012Z,26.75
2023-03-30T16:39:30.940Z,28.83
2023-03-30T16:41:57.950Z,28.15
2023-03-30T16:44:25.588Z,28.20
2023-03-30T16:46:53.145Z,27.55
2023-03-30T16:49:25.787Z,28.08
2023-03-30T16:51:55.296Z,27.77
2023-03-30T16:54:31.939Z,29.05
2023-03-30T16:57:01.182Z,28.02
2023-03-30T16:59:30.727Z,30.23
2023-03-30T17:01:58.718Z,31.30
2023-03-30T17:04:26.065Z,29.67
2023-03-30T17:06:54.950Z,32.55
2023-03-30T17:09:22.178Z,31.27
2023-03-30T17:11:49.161Z,31.52
2023-03-30T17:14:16.830Z,32.65
2023-03-30T17:16:43.949Z,33.05
2023-03-30T17:19:14.856Z,34.97
2023-03-30T17:21:43.794Z,33.35
2023-03-30T17:24:12.837Z,33.28
2023-03-30T17:26:41.108Z,34.00
2023-03-30T17:29:09.177Z,33.55
2023-03-30T17:31:36.338Z,33.35
2023-03-30T17:34:04.166Z,34.92
2023-03-30T17:36:31.305Z,33.88
2023-03-30T17:38:59.692Z,33.50
2023-03-30T17:41:26.982Z,34.22
2023-03-30T17:43:54.015Z,33.72
2023-03-30T17:46:21.375Z,34.22
2023-03-30T17:48:48.744Z,34.22
2023-03-30T17:51:15.903Z,33.13
2023-03-30T17:53:43.233Z,32.92
2023-03-30T17:56:13.363Z,33.13
2023-03-30T17:58:40.554Z,34.50
2023-03-30T18:01:10.135Z,32.95
2023-03-30T18:03:39.392Z,35.03
2023-03-30T18:06:07.432Z,35.28
2023-03-30T18:08:34.561Z,33.33
2023-03-30T18:11:01.919Z,35.10
2023-03-30T18:13:30.629Z,36.30
2023-03-30T18:15:59.452Z,35.47
2023-03-30T18:18:29.500Z,34.17
2023-03-30T18:21:05.416Z,35.38
2023-03-30T18:23:34.583Z,36.88
2023-03-30T18:26:03.894Z,36.63
2023-03-30T18:28:31.692Z,35.70
2023-03-30T18:31:00.857Z,36.35
2023-03-30T18:33:28.069Z,42.65
2023-03-30T18:35:57.146Z,35.60
2023-03-30T18:38:25.724Z,35.85
2023-03-30T18:40:58.256Z,37.30
2023-03-30T18:43:28.756Z,34.80
2023-03-30T18:46:00.069Z,36.80
2023-03-30T18:48:28.593Z,36.15
2023-03-30T18:50:56.457Z,35.80
2023-03-30T18:53:27.293Z,35.65
2023-03-30T18:56:01.711Z,36.25
2023-03-30T18:58:31.005Z,36.42
2023-03-30T19:00:58.097Z,37.30
2023-03-30T19:03:27.491Z,36.42
2023-03-30T19:05:54.646Z,36.40
2023-03-30T19:08:24.159Z,35.15
2023-03-30T19:10:55.128Z,35.50
2023-03-30T19:13:23.275Z,35.28
2023-03-30T19:15:51.353Z,34.00
2023-03-30T19:18:18.945Z,33.50
2023-03-30T19:20:46.394Z,33.33
2023-03-30T19:23:15.740Z,32.70
2023-03-30T19:25:43.532Z,32.88
2023-03-30T19:28:11.816Z,33.35
2023-03-30T19:30:40.059Z,32.78
2023-03-30T19:33:11.379Z,33.70
2023-03-30T19:35:41.344Z,32.28
2023-03-30T19:38:08.983Z,32.92
2023-03-30T19:40:38.116Z,31.90
2023-03-30T19:43:05.448Z,29.83
2023-03-30T19:45:32.771Z,31.83
2023-03-30T19:47:59.796Z,29.58
2023-03-30T19:50:28.634Z,30.05
2023-03-30T19:52:57.008Z,30.75
2023-03-30T19:55:24.072Z,29.55
2023-03-30T19:57:51.143Z,29.55
2023-03-30T20:00:19.915Z,29.50
2023-03-30T20:02:52.181Z,26.95
2023-03-30T20:05:21.093Z,28.45
2023-03-30T20:07:48.738Z,27.75
2023-03-30T20:10:20.986Z,27.60
2023-03-30T20:12:49.563Z,28.52
2023-03-30T20:15:17.245Z,27.10
2023-03-30T20:17:44.637Z,26.92
2023-03-30T20:20:13.997Z,27.38
2023-03-30T20:22:43.221Z,26.15
2023-03-30T20:25:13.647Z,26.00
2023-03-30T20:27:41.095Z,26.63
2023-03-30T20:30:09.079Z,27.00
2023-03-30T20:32:36.179Z,25.67
2023-03-30T20:35:04.088Z,26.83
2023-03-30T20:37:31.274Z,25.98
2023-03-30T20:40:05.250Z,25.00
2023-03-30T20:42:32.884Z,26.48
2023-03-30T20:45:01.330Z,26.70
2023-03-30T20:47:31.000Z,25.20
2023-03-30T20:49:59.322Z,24.80
2023-03-30T20:52:27.558Z,26.77
2023-03-30T20:54:54.811Z,25.30
2023-03-30T20:57:22.476Z,24.17
2023-03-30T20:59:50.401Z,24.10
2023-03-30T21:02:17.624Z,24.25
2023-03-30T21:04:45.197Z,24.02
2023-03-30T21:07:12.739Z,22.98
2023-03-30T21:09:40.170Z,22.42
2023-03-30T21:12:09.791Z,22.38
2023-03-30T21:14:36.831Z,21.10
2023-03-30T21:17:03.957Z,21.60
2023-03-30T21:19:30.977Z,20.38
2023-03-30T21:21:57.966Z,19.10
2023-03-30T21:24:25.258Z,18.35
2023-03-30T21:26:52.266Z,18.60
2023-03-30T21:29:19.399Z,17.48
2023-03-30T21:31:46.326Z,16.98
2023-03-30T21:34:13.571Z,16.75
2023-03-30T21:36:40.809Z,15.77
2023-03-30T21:39:07.808Z,14.93
2023-03-30T21:41:34.789Z,15.50
2023-03-30T21:44:02.024Z,14.80
2023-03-30T21:46:29.422Z,15.10
2023-03-30T21:48:56.548Z,13.55
2023-03-30T21:51:29.926Z,14.65
2023-03-30T21:53:57.761Z,13.00
2023-03-30T21:56:26.760Z,12.48
2023-03-30T21:58:53.775Z,12.98
2023-03-30T22:01:24.306Z,12.45
2023-03-30T22:03:55.112Z,13.75
2023-03-30T22:06:22.893Z,12.52
2023-03-30T22:08:50.080Z,11.70
2023-03-30T22:11:19.643Z,11.45
2023-03-30T22:13:48.685Z,12.30
2023-03-30T22:16:31.158Z,10.95
2023-03-30T22:18:58.310Z,10.73
2023-03-30T22:21:29.372Z,10.23
2023-03-30T22:23:56.490Z,10.85
2023-03-30T22:26:23.907Z,12.63
2023-03-30T22:28:50.881Z,11.65
2023-03-30T22:31:17.947Z,12.45
2023-03-30T22:33:45.675Z,12.57
2023-03-30T22:36:17.448Z,12.48
2023-03-30T22:38:44.764Z,12.13
2023-03-30T22:41:12.091Z,12.35
2023-03-30T22:43:39.243Z,11.75
2023-03-30T22:46:07.030Z,11.90
2023-03-30T22:48:35.679Z,11.95
2023-03-30T22:51:08.441Z,12.05
2023-03-30T22:53:35.865Z,10.57
2023-03-30T22:56:02.937Z,10.15
2023-03-30T22:58:30.014Z,8.73
2023-03-30T23:01:07.037Z,8.80
2023-03-30T23:03:34.409Z,8.18
2023-03-30T23:06:01.898Z,8.23
2023-03-30T23:08:30.136Z,6.57
2023-03-30T23:10:57.541Z,6.53
2023-03-30T23:13:24.442Z,6.60
2023-03-30T23:15:51.368Z,6.32
2023-03-30T23:18:18.386Z,6.35
2023-03-30T23:20:46.832Z,6.90
2023-03-30T23:23:14.892Z,6.47
2023-03-30T23:25:51.984Z,6.18
2023-03-30T23:28:19.473Z,6.85
2023-03-30T23:30:46.589Z,7.10
2023-03-30T23:33:13.654Z,6.53
2023-03-30T23:35:47.558Z,6.40
2023-03-30T23:38:14.503Z,6.95
2023-03-30T23:40:41.643Z,6.57
2023-03-30T23:43:08.865Z,6.80
2023-03-30T23:45:36.060Z,6.57
2023-03-30T23:48:03.007Z,7.22
2023-03-30T23:50:29.979Z,6.10
2023-03-30T23:52:57.992Z,5.72
2023-03-30T23:55:25.103Z,6.13
2023-03-30T23:57:52.025Z,6.82
